N950P LFPB-LFAC
Flight info
| Callsign | N950P |
|---|---|
| Flight time | 0h 44m |
| Altitude | 16000 |
| Route | ATREX DCT DIPER B24 BNE |
| Aircraft | B60T/L-SDFGRY/C |
Departure
| Time | 2026-05-05 16:59 |
|---|---|
| Airport | Paris-Le Bourget International Airport (LFPB) |
Arrival
| Time | 2026-05-05 17:43 |
|---|---|
| Airport | Calais Marck Airport (LFAC) |
| Time | Latitude | Longitude | Altitude | Speed | Heading |
|---|---|---|---|---|---|
| 2026-05-05 16:47 | 48.95690 | 2.43708 | 148 ft | 0 kts | 291° |
| 2026-05-05 16:55 | 48.95693 | 2.43703 | 148 ft | 5 kts | 323° |
| 2026-05-05 16:56 | 48.95692 | 2.43634 | 150 ft | 15 kts | 208° |
| 2026-05-05 16:56 | 48.95785 | 2.43584 | 152 ft | 21 kts | 352° |
| 2026-05-05 16:56 | 48.95866 | 2.43439 | 157 ft | 26 kts | 295° |
| 2026-05-05 16:56 | 48.95945 | 2.43182 | 152 ft | 20 kts | 294° |
| 2026-05-05 16:57 | 48.96004 | 2.43040 | 148 ft | 15 kts | 309° |
| 2026-05-05 16:57 | 48.96064 | 2.42923 | 147 ft | 12 kts | 307° |
| 2026-05-05 16:57 | 48.96116 | 2.42822 | 148 ft | 14 kts | 308° |
| 2026-05-05 16:57 | 48.96200 | 2.42669 | 154 ft | 23 kts | 309° |
| 2026-05-05 16:58 | 48.96267 | 2.42431 | 154 ft | 21 kts | 261° |
| 2026-05-05 16:58 | 48.96258 | 2.42282 | 154 ft | 11 kts | 272° |
| 2026-05-05 16:58 | 48.96260 | 2.42161 | 155 ft | 14 kts | 270° |
| 2026-05-05 16:58 | 48.96346 | 2.42055 | 151 ft | 17 kts | 13° |
| 2026-05-05 16:59 | 48.96407 | 2.42112 | 150 ft | 6 kts | 62° |
| 2026-05-05 16:59 | 48.96512 | 2.42494 | 161 ft | 81 kts | 69° |
| 2026-05-05 16:59 | 48.96771 | 2.43553 | 398 ft | 122 kts | 71° |
| 2026-05-05 16:59 | 48.96878 | 2.44821 | 1128 ft | 127 kts | 92° |
| 2026-05-05 17:00 | 48.96801 | 2.46218 | 1810 ft | 140 kts | 91° |
| 2026-05-05 17:00 | 48.96725 | 2.47744 | 2520 ft | 147 kts | 95° |
| 2026-05-05 17:00 | 48.96644 | 2.49303 | 3293 ft | 148 kts | 94° |
| 2026-05-05 17:00 | 48.96564 | 2.50866 | 4043 ft | 150 kts | 94° |
| 2026-05-05 17:01 | 48.96480 | 2.52461 | 4783 ft | 152 kts | 95° |
| 2026-05-05 17:01 | 48.96396 | 2.54071 | 5502 ft | 154 kts | 95° |
| 2026-05-05 17:01 | 48.96311 | 2.55710 | 6201 ft | 156 kts | 95° |
| 2026-05-05 17:01 | 48.96224 | 2.57367 | 6900 ft | 158 kts | 95° |
| 2026-05-05 17:02 | 48.96137 | 2.59043 | 7569 ft | 160 kts | 95° |
| 2026-05-05 17:02 | 48.96048 | 2.60751 | 8219 ft | 163 kts | 96° |
| 2026-05-05 17:02 | 48.95957 | 2.62477 | 8848 ft | 165 kts | 96° |
| 2026-05-05 17:02 | 48.95865 | 2.64231 | 9464 ft | 167 kts | 96° |
| 2026-05-05 17:03 | 48.95772 | 2.66002 | 10080 ft | 168 kts | 96° |
| 2026-05-05 17:03 | 48.95677 | 2.67786 | 10662 ft | 170 kts | 96° |
| 2026-05-05 17:03 | 48.95582 | 2.69588 | 11260 ft | 172 kts | 97° |
| 2026-05-05 17:03 | 48.95485 | 2.71408 | 11834 ft | 173 kts | 97° |
| 2026-05-05 17:04 | 48.95386 | 2.73242 | 12388 ft | 175 kts | 97° |
| 2026-05-05 17:04 | 48.95287 | 2.75092 | 12953 ft | 176 kts | 97° |
| 2026-05-05 17:04 | 48.95188 | 2.76947 | 13497 ft | 176 kts | 97° |
| 2026-05-05 17:04 | 48.95052 | 2.78805 | 14027 ft | 176 kts | 103° |
| 2026-05-05 17:05 | 48.94902 | 2.80675 | 14552 ft | 178 kts | 97° |
| 2026-05-05 17:05 | 48.94797 | 2.82535 | 15058 ft | 179 kts | 99° |
| 2026-05-05 17:05 | 48.94665 | 2.84421 | 15546 ft | 180 kts | 100° |
| 2026-05-05 17:05 | 48.94521 | 2.86354 | 15823 ft | 194 kts | 100° |
| 2026-05-05 17:06 | 48.94356 | 2.88498 | 15840 ft | 213 kts | 100° |
| 2026-05-05 17:06 | 48.94195 | 2.90809 | 15840 ft | 225 kts | 96° |
| 2026-05-05 17:06 | 48.94517 | 2.93181 | 15837 ft | 238 kts | 64° |
| 2026-05-05 17:06 | 48.95645 | 2.95035 | 15837 ft | 245 kts | 32° |
| 2026-05-05 17:07 | 48.97272 | 2.95798 | 15836 ft | 248 kts | 1° |
| 2026-05-05 17:07 | 48.98964 | 2.95366 | 15833 ft | 248 kts | 342° |
| 2026-05-05 17:07 | 49.00631 | 2.94689 | 15833 ft | 249 kts | 348° |
| 2026-05-05 17:07 | 49.02354 | 2.94418 | 15833 ft | 250 kts | 358° |
| 2026-05-05 17:08 | 49.04099 | 2.94402 | 15834 ft | 250 kts | 359° |
| 2026-05-05 17:08 | 49.05835 | 2.94335 | 15836 ft | 250 kts | 357° |
| 2026-05-05 17:08 | 49.07568 | 2.94201 | 15833 ft | 249 kts | 356° |
| 2026-05-05 17:08 | 49.09300 | 2.94076 | 15833 ft | 249 kts | 357° |
| 2026-05-05 17:09 | 49.11036 | 2.93966 | 15836 ft | 249 kts | 357° |
| 2026-05-05 17:09 | 49.12767 | 2.93838 | 15831 ft | 249 kts | 354° |
| 2026-05-05 17:09 | 49.14422 | 2.93144 | 15826 ft | 247 kts | 334° |
| 2026-05-05 17:09 | 49.15923 | 2.91877 | 15828 ft | 246 kts | 329° |
| 2026-05-05 17:10 | 49.17397 | 2.90592 | 15834 ft | 247 kts | 329° |
| 2026-05-05 17:10 | 49.18906 | 2.89290 | 15830 ft | 247 kts | 329° |
| 2026-05-05 17:10 | 49.20399 | 2.87996 | 15831 ft | 247 kts | 329° |
| 2026-05-05 17:10 | 49.21895 | 2.86697 | 15834 ft | 247 kts | 329° |
| 2026-05-05 17:11 | 49.23391 | 2.85399 | 15832 ft | 247 kts | 329° |
| 2026-05-05 17:11 | 49.24889 | 2.84097 | 15834 ft | 247 kts | 329° |
| 2026-05-05 17:11 | 49.26388 | 2.82800 | 15834 ft | 248 kts | 329° |
| 2026-05-05 17:11 | 49.27886 | 2.81497 | 15836 ft | 248 kts | 329° |
| 2026-05-05 17:12 | 49.29370 | 2.80186 | 15835 ft | 246 kts | 329° |
| 2026-05-05 17:12 | 49.30859 | 2.78899 | 15832 ft | 246 kts | 329° |
| 2026-05-05 17:12 | 49.32347 | 2.77606 | 15833 ft | 246 kts | 329° |
| 2026-05-05 17:12 | 49.33812 | 2.76325 | 15834 ft | 246 kts | 329° |
| 2026-05-05 17:13 | 49.35319 | 2.75008 | 15833 ft | 246 kts | 330° |
| 2026-05-05 17:13 | 49.36807 | 2.73709 | 15835 ft | 246 kts | 330° |
| 2026-05-05 17:13 | 49.38295 | 2.72409 | 15833 ft | 246 kts | 330° |
| 2026-05-05 17:13 | 49.39768 | 2.71123 | 15833 ft | 246 kts | 330° |
| 2026-05-05 17:14 | 49.41254 | 2.69818 | 15836 ft | 246 kts | 330° |
| 2026-05-05 17:14 | 49.42739 | 2.68517 | 15834 ft | 246 kts | 330° |
| 2026-05-05 17:14 | 49.44224 | 2.67215 | 15836 ft | 245 kts | 330° |
| 2026-05-05 17:14 | 49.45706 | 2.65916 | 15833 ft | 245 kts | 330° |
| 2026-05-05 17:15 | 49.47189 | 2.64612 | 15833 ft | 245 kts | 330° |
| 2026-05-05 17:15 | 49.48672 | 2.63309 | 15833 ft | 246 kts | 330° |
| 2026-05-05 17:15 | 49.50156 | 2.62005 | 15835 ft | 246 kts | 330° |
| 2026-05-05 17:15 | 49.51655 | 2.60687 | 15842 ft | 245 kts | 330° |
| 2026-05-05 17:16 | 49.53121 | 2.59395 | 15845 ft | 245 kts | 330° |
| 2026-05-05 17:16 | 49.54601 | 2.58090 | 15846 ft | 245 kts | 330° |
| 2026-05-05 17:16 | 49.56061 | 2.56802 | 15846 ft | 245 kts | 330° |
| 2026-05-05 17:16 | 49.57561 | 2.55478 | 15846 ft | 245 kts | 330° |
| 2026-05-05 17:17 | 49.59042 | 2.54171 | 15847 ft | 245 kts | 330° |
| 2026-05-05 17:17 | 49.60502 | 2.52882 | 15847 ft | 245 kts | 330° |
| 2026-05-05 17:17 | 49.61982 | 2.51576 | 15846 ft | 245 kts | 330° |
| 2026-05-05 17:17 | 49.63456 | 2.50270 | 15845 ft | 244 kts | 330° |
| 2026-05-05 17:18 | 49.64926 | 2.48966 | 15845 ft | 244 kts | 330° |
| 2026-05-05 17:18 | 49.66404 | 2.47656 | 15845 ft | 244 kts | 330° |
| 2026-05-05 17:18 | 49.67877 | 2.46350 | 15845 ft | 244 kts | 330° |
| 2026-05-05 17:18 | 49.69352 | 2.45043 | 15845 ft | 244 kts | 331° |
| 2026-05-05 17:19 | 49.70823 | 2.43735 | 15846 ft | 244 kts | 330° |
| 2026-05-05 17:19 | 49.72294 | 2.42428 | 15846 ft | 243 kts | 331° |
| 2026-05-05 17:19 | 49.73756 | 2.41128 | 15855 ft | 243 kts | 330° |
| 2026-05-05 17:19 | 49.75222 | 2.39823 | 15855 ft | 243 kts | 330° |
| 2026-05-05 17:20 | 49.76687 | 2.38518 | 15855 ft | 243 kts | 331° |
| 2026-05-05 17:20 | 49.78153 | 2.37215 | 15854 ft | 243 kts | 332° |
| 2026-05-05 17:20 | 49.79708 | 2.36226 | 15854 ft | 242 kts | 343° |
| 2026-05-05 17:20 | 49.81300 | 2.35389 | 15856 ft | 242 kts | 342° |
| 2026-05-05 17:21 | 49.82885 | 2.34519 | 15858 ft | 242 kts | 342° |
| 2026-05-05 17:21 | 49.84470 | 2.33653 | 15858 ft | 241 kts | 342° |
| 2026-05-05 17:21 | 49.86054 | 2.32794 | 15858 ft | 241 kts | 342° |
| 2026-05-05 17:22 | 49.89208 | 2.31081 | 15859 ft | 241 kts | 342° |
| 2026-05-05 17:22 | 49.90787 | 2.30224 | 15858 ft | 240 kts | 342° |
| 2026-05-05 17:22 | 49.92361 | 2.29366 | 15858 ft | 239 kts | 342° |
| 2026-05-05 17:22 | 49.93932 | 2.28510 | 15855 ft | 239 kts | 342° |
| 2026-05-05 17:23 | 49.95499 | 2.27654 | 15854 ft | 239 kts | 342° |
| 2026-05-05 17:23 | 49.97070 | 2.26797 | 15854 ft | 239 kts | 342° |
| 2026-05-05 17:23 | 49.98649 | 2.25934 | 15854 ft | 240 kts | 342° |
| 2026-05-05 17:23 | 50.00227 | 2.25075 | 15711 ft | 245 kts | 342° |
| 2026-05-05 17:24 | 50.01831 | 2.24198 | 15465 ft | 244 kts | 342° |
| 2026-05-05 17:24 | 50.03432 | 2.23322 | 15217 ft | 243 kts | 342° |
| 2026-05-05 17:24 | 50.05014 | 2.22456 | 14965 ft | 237 kts | 342° |
| 2026-05-05 17:24 | 50.06543 | 2.21617 | 14707 ft | 230 kts | 342° |
| 2026-05-05 17:25 | 50.08044 | 2.20794 | 14448 ft | 227 kts | 342° |
| 2026-05-05 17:25 | 50.09025 | 2.20256 | 14283 ft | 225 kts | 342° |
| 2026-05-05 17:25 | 50.10995 | 2.19172 | 13937 ft | 223 kts | 342° |
| 2026-05-05 17:25 | 50.12456 | 2.18371 | 13685 ft | 222 kts | 342° |
| 2026-05-05 17:26 | 50.13891 | 2.17582 | 13433 ft | 221 kts | 342° |
| 2026-05-05 17:26 | 50.15357 | 2.16776 | 13184 ft | 221 kts | 342° |
| 2026-05-05 17:26 | 50.16763 | 2.16002 | 12939 ft | 220 kts | 342° |
| 2026-05-05 17:26 | 50.18224 | 2.15198 | 12687 ft | 219 kts | 342° |
| 2026-05-05 17:27 | 50.19660 | 2.14407 | 12437 ft | 219 kts | 342° |
| 2026-05-05 17:27 | 50.21093 | 2.13617 | 12188 ft | 218 kts | 342° |
| 2026-05-05 17:27 | 50.22524 | 2.12827 | 11938 ft | 218 kts | 342° |
| 2026-05-05 17:27 | 50.23948 | 2.12041 | 11689 ft | 217 kts | 343° |
| 2026-05-05 17:28 | 50.25367 | 2.11258 | 11440 ft | 216 kts | 342° |
| 2026-05-05 17:28 | 50.26784 | 2.10474 | 11188 ft | 215 kts | 343° |
| 2026-05-05 17:28 | 50.28195 | 2.09694 | 10941 ft | 215 kts | 342° |
| 2026-05-05 17:28 | 50.29599 | 2.08916 | 10691 ft | 214 kts | 342° |
| 2026-05-05 17:29 | 50.30997 | 2.08141 | 10441 ft | 213 kts | 343° |
| 2026-05-05 17:29 | 50.32390 | 2.07370 | 10193 ft | 212 kts | 343° |
| 2026-05-05 17:29 | 50.33781 | 2.06598 | 9941 ft | 212 kts | 343° |
| 2026-05-05 17:29 | 50.35170 | 2.05828 | 9694 ft | 211 kts | 343° |
| 2026-05-05 17:30 | 50.36514 | 2.05089 | 9451 ft | 210 kts | 343° |
| 2026-05-05 17:30 | 50.37928 | 2.04314 | 9194 ft | 209 kts | 343° |
| 2026-05-05 17:30 | 50.39299 | 2.03561 | 8945 ft | 208 kts | 343° |
| 2026-05-05 17:30 | 50.40662 | 2.02809 | 8695 ft | 207 kts | 343° |
| 2026-05-05 17:31 | 50.42022 | 2.02059 | 8446 ft | 207 kts | 343° |
| 2026-05-05 17:31 | 50.43377 | 2.01311 | 8190 ft | 206 kts | 343° |
| 2026-05-05 17:31 | 50.44710 | 2.00576 | 7950 ft | 205 kts | 343° |
| 2026-05-05 17:31 | 50.46052 | 1.99834 | 7709 ft | 204 kts | 343° |
| 2026-05-05 17:32 | 50.47422 | 1.99078 | 7510 ft | 207 kts | 343° |
| 2026-05-05 17:32 | 50.48770 | 1.98331 | 7320 ft | 208 kts | 343° |
| 2026-05-05 17:32 | 50.50140 | 1.97573 | 7122 ft | 209 kts | 343° |
| 2026-05-05 17:32 | 50.51484 | 1.96831 | 6922 ft | 202 kts | 343° |
| 2026-05-05 17:33 | 50.52797 | 1.96099 | 6716 ft | 199 kts | 343° |
| 2026-05-05 17:33 | 50.54094 | 1.95376 | 6510 ft | 197 kts | 343° |
| 2026-05-05 17:33 | 50.55391 | 1.94666 | 6307 ft | 196 kts | 344° |
| 2026-05-05 17:33 | 50.56676 | 1.93956 | 6099 ft | 194 kts | 344° |
| 2026-05-05 17:34 | 50.57950 | 1.93252 | 5905 ft | 194 kts | 346° |
| 2026-05-05 17:34 | 50.59264 | 1.92846 | 5709 ft | 192 kts | 355° |
| 2026-05-05 17:34 | 50.60134 | 1.92661 | 5595 ft | 190 kts | 354° |
| 2026-05-05 17:34 | 50.61434 | 1.92306 | 5417 ft | 190 kts | 352° |
| 2026-05-05 17:35 | 50.62728 | 1.91903 | 5244 ft | 189 kts | 352° |
| 2026-05-05 17:35 | 50.64020 | 1.91508 | 5067 ft | 190 kts | 352° |
| 2026-05-05 17:35 | 50.65310 | 1.91114 | 4894 ft | 188 kts | 352° |
| 2026-05-05 17:35 | 50.66593 | 1.90727 | 4721 ft | 187 kts | 353° |
| 2026-05-05 17:36 | 50.67871 | 1.90340 | 4548 ft | 188 kts | 352° |
| 2026-05-05 17:36 | 50.69155 | 1.89940 | 4364 ft | 188 kts | 352° |
| 2026-05-05 17:36 | 50.70438 | 1.89550 | 4197 ft | 188 kts | 352° |
| 2026-05-05 17:36 | 50.71715 | 1.89158 | 4024 ft | 187 kts | 352° |
| 2026-05-05 17:37 | 50.72990 | 1.88772 | 3846 ft | 186 kts | 352° |
| 2026-05-05 17:37 | 50.74254 | 1.88392 | 3673 ft | 184 kts | 352° |
| 2026-05-05 17:37 | 50.75516 | 1.88002 | 3497 ft | 185 kts | 352° |
| 2026-05-05 17:37 | 50.76781 | 1.87613 | 3322 ft | 185 kts | 352° |
| 2026-05-05 17:38 | 50.78029 | 1.87234 | 3153 ft | 185 kts | 353° |
| 2026-05-05 17:38 | 50.79295 | 1.86847 | 2975 ft | 185 kts | 353° |
| 2026-05-05 17:38 | 50.80555 | 1.86462 | 2799 ft | 182 kts | 353° |
| 2026-05-05 17:38 | 50.81727 | 1.86096 | 2614 ft | 164 kts | 353° |
| 2026-05-05 17:39 | 50.82818 | 1.85761 | 2419 ft | 156 kts | 353° |
| 2026-05-05 17:39 | 50.83913 | 1.85426 | 2245 ft | 168 kts | 353° |
| 2026-05-05 17:39 | 50.85088 | 1.85068 | 2104 ft | 175 kts | 353° |
| 2026-05-05 17:39 | 50.86289 | 1.84701 | 1965 ft | 177 kts | 353° |
| 2026-05-05 17:40 | 50.87496 | 1.84331 | 1822 ft | 176 kts | 352° |
| 2026-05-05 17:40 | 50.88700 | 1.83958 | 1679 ft | 177 kts | 352° |
| 2026-05-05 17:40 | 50.89917 | 1.83590 | 1530 ft | 177 kts | 354° |
| 2026-05-05 17:40 | 50.91028 | 1.83666 | 1354 ft | 143 kts | 17° |
| 2026-05-05 17:41 | 50.91880 | 1.84256 | 1163 ft | 129 kts | 32° |
| 2026-05-05 17:41 | 50.92548 | 1.85194 | 991 ft | 128 kts | 49° |
| 2026-05-05 17:41 | 50.93015 | 1.86405 | 823 ft | 130 kts | 58° |
| 2026-05-05 17:41 | 50.93451 | 1.87638 | 706 ft | 121 kts | 57° |
| 2026-05-05 17:42 | 50.93849 | 1.88770 | 721 ft | 107 kts | 58° |
| 2026-05-05 17:42 | 50.94215 | 1.89790 | 676 ft | 108 kts | 57° |
| 2026-05-05 17:42 | 50.94589 | 1.90852 | 546 ft | 111 kts | 58° |
| 2026-05-05 17:42 | 50.94961 | 1.91928 | 406 ft | 111 kts | 58° |
| 2026-05-05 17:43 | 50.95329 | 1.92990 | 232 ft | 110 kts | 57° |
| 2026-05-05 17:43 | 50.95685 | 1.93982 | 113 ft | 97 kts | 58° |
| 2026-05-05 17:43 | 50.96006 | 1.94896 | 23 ft | 92 kts | 58° |
| 2026-05-05 17:43 | 50.96255 | 1.95589 | 13 ft | 33 kts | 61° |
| 2026-05-05 17:44 | 50.96325 | 1.95804 | 12 ft | 29 kts | 70° |
| 2026-05-05 17:44 | 50.96269 | 1.95957 | 14 ft | 21 kts | 150° |
| 2026-05-05 17:44 | 50.96168 | 1.95944 | 14 ft | 18 kts | 235° |
| 2026-05-05 17:44 | 50.96104 | 1.95761 | 14 ft | 13 kts | 243° |
| 2026-05-05 17:45 | 50.96030 | 1.95745 | 14 ft | 12 kts | 153° |
| 2026-05-05 17:45 | 50.95967 | 1.95683 | 14 ft | 12 kts | 243° |
| 2026-05-05 17:45 | 50.95941 | 1.95608 | 14 ft | 5 kts | 240° |
| 2026-05-05 17:45 | 50.95952 | 1.95544 | 14 ft | 5 kts | 316° |
| 2026-05-05 17:46 | 50.95954 | 1.95534 | 14 ft | 0 kts | 256° |